sensor_id;sensor_type;location;lat;lon;timestamp;P1;durP1;ratioP1;P2;durP2;ratioP2
61127;SDS011;47013;42.664;23.242;2023-07-30T00:00:01;0.10;;;0.10;;
61127;SDS011;47013;42.664;23.242;2023-07-30T00:02:27;0.45;;;0.30;;
61127;SDS011;47013;42.664;23.242;2023-07-30T00:04:52;0.17;;;0.08;;
61127;SDS011;47013;42.664;23.242;2023-07-30T00:07:18;0.45;;;0.20;;
61127;SDS011;47013;42.664;23.242;2023-07-30T00:09:43;0.00;;;0.00;;
61127;SDS011;47013;42.664;23.242;2023-07-30T00:12:09;0.10;;;0.10;;
61127;SDS011;47013;42.664;23.242;2023-07-30T00:14:34;0.10;;;0.10;;
61127;SDS011;47013;42.664;23.242;2023-07-30T00:17:00;0.10;;;0.10;;
61127;SDS011;47013;42.664;23.242;2023-07-30T00:19:26;0.00;;;0.00;;
61127;SDS011;47013;42.664;23.242;2023-07-30T00:21:52;0.05;;;0.05;;
61127;SDS011;47013;42.664;23.242;2023-07-30T00:24:17;0.20;;;0.17;;
61127;SDS011;47013;42.664;23.242;2023-07-30T00:26:42;0.00;;;0.00;;
61127;SDS011;47013;42.664;23.242;2023-07-30T00:29:08;0.10;;;0.10;;
61127;SDS011;47013;42.664;23.242;2023-07-30T00:31:33;0.20;;;0.20;;
61127;SDS011;47013;42.664;23.242;2023-07-30T00:33:58;0.30;;;0.20;;
61127;SDS011;47013;42.664;23.242;2023-07-30T00:36:24;0.28;;;0.28;;
61127;SDS011;47013;42.664;23.242;2023-07-30T00:38:49;0.08;;;0.08;;
61127;SDS011;47013;42.664;23.242;2023-07-30T00:41:14;0.00;;;0.00;;
61127;SDS011;47013;42.664;23.242;2023-07-30T00:43:40;0.28;;;0.20;;
61127;SDS011;47013;42.664;23.242;2023-07-30T00:46:05;0.10;;;0.10;;
61127;SDS011;47013;42.664;23.242;2023-07-30T00:48:31;0.30;;;0.30;;
61127;SDS011;47013;42.664;23.242;2023-07-30T00:50:57;0.15;;;0.13;;
61127;SDS011;47013;42.664;23.242;2023-07-30T00:53:23;0.20;;;0.20;;
61127;SDS011;47013;42.664;23.242;2023-07-30T00:55:50;0.00;;;0.00;;
61127;SDS011;47013;42.664;23.242;2023-07-30T00:58:16;0.20;;;0.10;;
61127;SDS011;47013;42.664;23.242;2023-07-30T01:00:43;0.10;;;0.10;;
61127;SDS011;47013;42.664;23.242;2023-07-30T01:03:10;0.00;;;0.00;;
61127;SDS011;47013;42.664;23.242;2023-07-30T01:05:35;0.28;;;0.28;;
61127;SDS011;47013;42.664;23.242;2023-07-30T01:08:01;0.17;;;0.17;;
61127;SDS011;47013;42.664;23.242;2023-07-30T01:10:26;0.25;;;0.20;;
61127;SDS011;47013;42.664;23.242;2023-07-30T01:12:53;0.00;;;0.00;;
61127;SDS011;47013;42.664;23.242;2023-07-30T01:15:19;0.22;;;0.22;;
61127;SDS011;47013;42.664;23.242;2023-07-30T01:17:45;0.20;;;0.20;;
61127;SDS011;47013;42.664;23.242;2023-07-30T01:20:10;0.10;;;0.10;;
61127;SDS011;47013;42.664;23.242;2023-07-30T01:22:36;0.00;;;0.00;;
61127;SDS011;47013;42.664;23.242;2023-07-30T01:25:02;0.00;;;0.00;;
61127;SDS011;47013;42.664;23.242;2023-07-30T01:27:28;0.00;;;0.00;;
61127;SDS011;47013;42.664;23.242;2023-07-30T01:32:48;0.10;;;0.10;;
61127;SDS011;47013;42.664;23.242;2023-07-30T01:35:16;0.10;;;0.10;;
61127;SDS011;47013;42.664;23.242;2023-07-30T01:37:45;0.00;;;0.00;;
61127;SDS011;47013;42.664;23.242;2023-07-30T01:40:11;0.43;;;0.43;;
61127;SDS011;47013;42.664;23.242;2023-07-30T01:42:38;0.00;;;0.00;;
61127;SDS011;47013;42.664;23.242;2023-07-30T01:45:04;0.00;;;0.00;;
61127;SDS011;47013;42.664;23.242;2023-07-30T01:47:30;0.00;;;0.00;;
61127;SDS011;47013;42.664;23.242;2023-07-30T01:49:55;0.00;;;0.00;;
61127;SDS011;47013;42.664;23.242;2023-07-30T01:52:21;0.40;;;0.32;;
61127;SDS011;47013;42.664;23.242;2023-07-30T01:54:46;0.00;;;0.00;;
61127;SDS011;47013;42.664;23.242;2023-07-30T01:57:12;0.00;;;0.00;;
61127;SDS011;47013;42.664;23.242;2023-07-30T01:59:38;0.63;;;0.43;;
61127;SDS011;47013;42.664;23.242;2023-07-30T02:02:04;0.08;;;0.08;;
61127;SDS011;47013;42.664;23.242;2023-07-30T02:04:30;0.10;;;0.10;;
61127;SDS011;47013;42.664;23.242;2023-07-30T02:06:55;0.10;;;0.10;;
61127;SDS011;47013;42.664;23.242;2023-07-30T02:09:21;0.00;;;0.00;;
61127;SDS011;47013;42.664;23.242;2023-07-30T02:11:46;0.08;;;0.08;;
61127;SDS011;47013;42.664;23.242;2023-07-30T02:14:12;0.00;;;0.00;;
61127;SDS011;47013;42.664;23.242;2023-07-30T02:16:37;0.10;;;0.10;;
61127;SDS011;47013;42.664;23.242;2023-07-30T02:19:03;0.38;;;0.25;;
61127;SDS011;47013;42.664;23.242;2023-07-30T02:21:28;0.03;;;0.03;;
61127;SDS011;47013;42.664;23.242;2023-07-30T02:23:57;0.00;;;0.00;;
61127;SDS011;47013;42.664;23.242;2023-07-30T02:26:22;0.08;;;0.08;;
61127;SDS011;47013;42.664;23.242;2023-07-30T02:28:47;0.00;;;0.00;;
61127;SDS011;47013;42.664;23.242;2023-07-30T02:31:13;0.10;;;0.10;;
61127;SDS011;47013;42.664;23.242;2023-07-30T02:33:38;0.35;;;0.28;;
61127;SDS011;47013;42.664;23.242;2023-07-30T02:36:04;0.38;;;0.20;;
61127;SDS011;47013;42.664;23.242;2023-07-30T02:38:29;0.10;;;0.10;;
61127;SDS011;47013;42.664;23.242;2023-07-30T02:40:54;0.00;;;0.00;;
61127;SDS011;47013;42.664;23.242;2023-07-30T02:43:20;0.05;;;0.05;;
61127;SDS011;47013;42.664;23.242;2023-07-30T02:45:48;0.10;;;0.10;;
61127;SDS011;47013;42.664;23.242;2023-07-30T02:48:14;0.47;;;0.28;;
61127;SDS011;47013;42.664;23.242;2023-07-30T02:50:39;0.10;;;0.10;;
61127;SDS011;47013;42.664;23.242;2023-07-30T02:53:05;0.00;;;0.00;;
61127;SDS011;47013;42.664;23.242;2023-07-30T02:55:30;0.20;;;0.20;;
61127;SDS011;47013;42.664;23.242;2023-07-30T02:57:55;0.00;;;0.00;;
61127;SDS011;47013;42.664;23.242;2023-07-30T03:00:21;0.05;;;0.05;;
61127;SDS011;47013;42.664;23.242;2023-07-30T03:02:46;0.30;;;0.20;;
61127;SDS011;47013;42.664;23.242;2023-07-30T03:05:12;0.17;;;0.10;;
61127;SDS011;47013;42.664;23.242;2023-07-30T03:07:37;0.17;;;0.17;;
61127;SDS011;47013;42.664;23.242;2023-07-30T03:10:02;0.00;;;0.00;;
61127;SDS011;47013;42.664;23.242;2023-07-30T03:12:28;0.30;;;0.30;;
61127;SDS011;47013;42.664;23.242;2023-07-30T03:14:53;0.20;;;0.20;;
61127;SDS011;47013;42.664;23.242;2023-07-30T03:17:19;0.03;;;0.03;;
61127;SDS011;47013;42.664;23.242;2023-07-30T03:19:44;0.20;;;0.15;;
61127;SDS011;47013;42.664;23.242;2023-07-30T03:22:11;0.20;;;0.20;;
61127;SDS011;47013;42.664;23.242;2023-07-30T03:24:36;0.50;;;0.15;;
61127;SDS011;47013;42.664;23.242;2023-07-30T03:27:02;0.10;;;0.10;;
61127;SDS011;47013;42.664;23.242;2023-07-30T03:29:27;0.00;;;0.00;;
61127;SDS011;47013;42.664;23.242;2023-07-30T03:31:53;0.00;;;0.00;;
61127;SDS011;47013;42.664;23.242;2023-07-30T03:34:18;0.00;;;0.00;;
61127;SDS011;47013;42.664;23.242;2023-07-30T03:36:43;0.15;;;0.05;;
61127;SDS011;47013;42.664;23.242;2023-07-30T03:39:09;0.10;;;0.10;;
61127;SDS011;47013;42.664;23.242;2023-07-30T03:41:34;0.30;;;0.17;;
61127;SDS011;47013;42.664;23.242;2023-07-30T03:44:00;0.00;;;0.00;;
61127;SDS011;47013;42.664;23.242;2023-07-30T03:46:25;0.20;;;0.20;;
61127;SDS011;47013;42.664;23.242;2023-07-30T03:48:51;0.10;;;0.10;;
61127;SDS011;47013;42.664;23.242;2023-07-30T03:51:16;0.00;;;0.00;;
61127;SDS011;47013;42.664;23.242;2023-07-30T03:53:41;0.00;;;0.00;;
61127;SDS011;47013;42.664;23.242;2023-07-30T03:56:07;0.03;;;0.03;;
61127;SDS011;47013;42.664;23.242;2023-07-30T03:58:33;0.00;;;0.00;;
61127;SDS011;47013;42.664;23.242;2023-07-30T04:00:58;0.20;;;0.20;;
61127;SDS011;47013;42.664;23.242;2023-07-30T04:03:24;0.20;;;0.10;;
61127;SDS011;47013;42.664;23.242;2023-07-30T04:05:49;0.30;;;0.20;;
61127;SDS011;47013;42.664;23.242;2023-07-30T04:08:15;0.10;;;0.10;;
61127;SDS011;47013;42.664;23.242;2023-07-30T04:10:41;0.13;;;0.13;;
61127;SDS011;47013;42.664;23.242;2023-07-30T04:13:06;0.05;;;0.03;;
61127;SDS011;47013;42.664;23.242;2023-07-30T04:15:33;0.00;;;0.00;;
61127;SDS011;47013;42.664;23.242;2023-07-30T04:17:58;0.10;;;0.10;;
61127;SDS011;47013;42.664;23.242;2023-07-30T04:20:24;0.20;;;0.20;;
61127;SDS011;47013;42.664;23.242;2023-07-30T04:22:49;0.00;;;0.00;;
61127;SDS011;47013;42.664;23.242;2023-07-30T04:25:14;0.10;;;0.10;;
61127;SDS011;47013;42.664;23.242;2023-07-30T04:27:40;1.85;;;0.55;;
61127;SDS011;47013;42.664;23.242;2023-07-30T04:30:05;0.90;;;0.45;;
61127;SDS011;47013;42.664;23.242;2023-07-30T04:32:31;0.10;;;0.10;;
61127;SDS011;47013;42.664;23.242;2023-07-30T04:34:57;1.13;;;0.32;;
61127;SDS011;47013;42.664;23.242;2023-07-30T04:37:22;0.13;;;0.10;;
61127;SDS011;47013;42.664;23.242;2023-07-30T04:39:48;0.32;;;0.32;;
61127;SDS011;47013;42.664;23.242;2023-07-30T04:42:13;0.38;;;0.13;;
61127;SDS011;47013;42.664;23.242;2023-07-30T04:44:40;0.00;;;0.00;;
61127;SDS011;47013;42.664;23.242;2023-07-30T04:47:05;0.00;;;0.00;;
61127;SDS011;47013;42.664;23.242;2023-07-30T04:49:31;0.20;;;0.20;;
61127;SDS011;47013;42.664;23.242;2023-07-30T04:51:56;0.30;;;0.30;;
61127;SDS011;47013;42.664;23.242;2023-07-30T04:54:21;0.08;;;0.08;;
61127;SDS011;47013;42.664;23.242;2023-07-30T04:56:47;0.32;;;0.32;;
61127;SDS011;47013;42.664;23.242;2023-07-30T04:59:12;0.38;;;0.38;;
61127;SDS011;47013;42.664;23.242;2023-07-30T05:01:38;0.60;;;0.40;;
61127;SDS011;47013;42.664;23.242;2023-07-30T05:04:03;0.00;;;0.00;;
61127;SDS011;47013;42.664;23.242;2023-07-30T05:06:28;0.40;;;0.30;;
61127;SDS011;47013;42.664;23.242;2023-07-30T05:08:54;0.20;;;0.10;;
61127;SDS011;47013;42.664;23.242;2023-07-30T05:11:19;0.10;;;0.10;;
61127;SDS011;47013;42.664;23.242;2023-07-30T05:13:45;0.77;;;0.28;;
61127;SDS011;47013;42.664;23.242;2023-07-30T05:16:10;0.73;;;0.40;;
61127;SDS011;47013;42.664;23.242;2023-07-30T05:18:35;0.70;;;0.28;;
61127;SDS011;47013;42.664;23.242;2023-07-30T05:21:01;0.13;;;0.13;;
61127;SDS011;47013;42.664;23.242;2023-07-30T05:23:26;1.17;;;0.68;;
61127;SDS011;47013;42.664;23.242;2023-07-30T05:25:51;0.15;;;0.15;;
61127;SDS011;47013;42.664;23.242;2023-07-30T05:28:17;0.20;;;0.20;;
61127;SDS011;47013;42.664;23.242;2023-07-30T05:30:42;0.57;;;0.45;;
61127;SDS011;47013;42.664;23.242;2023-07-30T05:33:08;0.32;;;0.32;;
61127;SDS011;47013;42.664;23.242;2023-07-30T05:35:34;0.05;;;0.05;;
61127;SDS011;47013;42.664;23.242;2023-07-30T05:37:59;0.38;;;0.30;;
61127;SDS011;47013;42.664;23.242;2023-07-30T05:40:25;0.10;;;0.10;;
61127;SDS011;47013;42.664;23.242;2023-07-30T05:42:50;0.17;;;0.17;;
61127;SDS011;47013;42.664;23.242;2023-07-30T05:45:16;1.15;;;0.28;;
61127;SDS011;47013;42.664;23.242;2023-07-30T05:47:41;0.65;;;0.65;;
61127;SDS011;47013;42.664;23.242;2023-07-30T05:50:07;0.63;;;0.40;;
61127;SDS011;47013;42.664;23.242;2023-07-30T05:52:33;0.25;;;0.25;;
61127;SDS011;47013;42.664;23.242;2023-07-30T05:54:59;0.40;;;0.20;;
61127;SDS011;47013;42.664;23.242;2023-07-30T05:57:24;0.00;;;0.00;;
61127;SDS011;47013;42.664;23.242;2023-07-30T05:59:50;0.40;;;0.30;;
61127;SDS011;47013;42.664;23.242;2023-07-30T06:02:15;0.55;;;0.17;;
61127;SDS011;47013;42.664;23.242;2023-07-30T06:04:41;0.38;;;0.20;;
61127;SDS011;47013;42.664;23.242;2023-07-30T06:07:06;0.17;;;0.17;;
61127;SDS011;47013;42.664;23.242;2023-07-30T06:09:32;0.68;;;0.60;;
61127;SDS011;47013;42.664;23.242;2023-07-30T06:11:57;0.82;;;0.60;;
61127;SDS011;47013;42.664;23.242;2023-07-30T06:14:23;4.45;;;0.73;;
61127;SDS011;47013;42.664;23.242;2023-07-30T06:16:49;0.10;;;0.10;;
61127;SDS011;47013;42.664;23.242;2023-07-30T06:19:15;0.30;;;0.30;;
61127;SDS011;47013;42.664;23.242;2023-07-30T06:21:41;0.10;;;0.10;;
61127;SDS011;47013;42.664;23.242;2023-07-30T06:24:07;0.38;;;0.32;;
61127;SDS011;47013;42.664;23.242;2023-07-30T06:26:32;0.65;;;0.40;;
61127;SDS011;47013;42.664;23.242;2023-07-30T06:28:58;0.40;;;0.40;;
61127;SDS011;47013;42.664;23.242;2023-07-30T06:31:23;0.40;;;0.30;;
61127;SDS011;47013;42.664;23.242;2023-07-30T06:33:49;0.25;;;0.15;;
61127;SDS011;47013;42.664;23.242;2023-07-30T06:36:14;0.77;;;0.45;;
61127;SDS011;47013;42.664;23.242;2023-07-30T06:38:39;0.28;;;0.28;;
61127;SDS011;47013;42.664;23.242;2023-07-30T06:41:05;0.63;;;0.43;;
61127;SDS011;47013;42.664;23.242;2023-07-30T06:43:30;0.32;;;0.32;;
61127;SDS011;47013;42.664;23.242;2023-07-30T06:45:56;0.68;;;0.68;;
61127;SDS011;47013;42.664;23.242;2023-07-30T06:48:21;1.45;;;0.88;;
61127;SDS011;47013;42.664;23.242;2023-07-30T06:50:46;0.30;;;0.30;;
61127;SDS011;47013;42.664;23.242;2023-07-30T06:53:12;0.20;;;0.20;;
61127;SDS011;47013;42.664;23.242;2023-07-30T06:55:37;0.00;;;0.00;;
61127;SDS011;47013;42.664;23.242;2023-07-30T06:58:02;0.75;;;0.65;;
61127;SDS011;47013;42.664;23.242;2023-07-30T07:00:28;0.43;;;0.43;;
61127;SDS011;47013;42.664;23.242;2023-07-30T07:02:54;0.40;;;0.40;;
61127;SDS011;47013;42.664;23.242;2023-07-30T07:05:19;0.32;;;0.28;;
61127;SDS011;47013;42.664;23.242;2023-07-30T07:07:45;0.30;;;0.30;;
61127;SDS011;47013;42.664;23.242;2023-07-30T07:10:10;0.60;;;0.35;;
61127;SDS011;47013;42.664;23.242;2023-07-30T07:12:36;1.27;;;0.80;;
61127;SDS011;47013;42.664;23.242;2023-07-30T07:15:03;0.70;;;0.38;;
61127;SDS011;47013;42.664;23.242;2023-07-30T07:17:29;0.13;;;0.13;;
61127;SDS011;47013;42.664;23.242;2023-07-30T07:19:54;0.52;;;0.52;;
61127;SDS011;47013;42.664;23.242;2023-07-30T07:22:20;0.55;;;0.43;;
61127;SDS011;47013;42.664;23.242;2023-07-30T07:24:45;0.88;;;0.60;;
61127;SDS011;47013;42.664;23.242;2023-07-30T07:27:11;0.10;;;0.10;;
61127;SDS011;47013;42.664;23.242;2023-07-30T07:29:36;1.08;;;0.75;;
61127;SDS011;47013;42.664;23.242;2023-07-30T07:32:02;0.75;;;0.63;;
61127;SDS011;47013;42.664;23.242;2023-07-30T07:34:27;1.02;;;0.50;;
61127;SDS011;47013;42.664;23.242;2023-07-30T07:36:53;1.00;;;0.77;;
61127;SDS011;47013;42.664;23.242;2023-07-30T07:39:19;0.75;;;0.55;;
61127;SDS011;47013;42.664;23.242;2023-07-30T07:41:44;0.38;;;0.38;;
61127;SDS011;47013;42.664;23.242;2023-07-30T07:44:10;1.00;;;0.55;;
61127;SDS011;47013;42.664;23.242;2023-07-30T07:46:35;0.65;;;0.63;;
61127;SDS011;47013;42.664;23.242;2023-07-30T07:49:01;0.52;;;0.43;;
61127;SDS011;47013;42.664;23.242;2023-07-30T07:51:26;0.45;;;0.45;;
61127;SDS011;47013;42.664;23.242;2023-07-30T07:53:51;0.95;;;0.45;;
61127;SDS011;47013;42.664;23.242;2023-07-30T07:56:17;1.42;;;0.80;;
61127;SDS011;47013;42.664;23.242;2023-07-30T07:58:42;0.82;;;0.70;;
61127;SDS011;47013;42.664;23.242;2023-07-30T08:01:08;2.47;;;0.95;;
61127;SDS011;47013;42.664;23.242;2023-07-30T08:03:33;0.88;;;0.63;;
61127;SDS011;47013;42.664;23.242;2023-07-30T08:05:59;1.33;;;0.50;;
61127;SDS011;47013;42.664;23.242;2023-07-30T08:08:25;1.35;;;0.80;;
61127;SDS011;47013;42.664;23.242;2023-07-30T08:10:51;0.60;;;0.53;;
61127;SDS011;47013;42.664;23.242;2023-07-30T08:13:17;0.68;;;0.57;;
61127;SDS011;47013;42.664;23.242;2023-07-30T08:15:42;0.50;;;0.47;;
61127;SDS011;47013;42.664;23.242;2023-07-30T08:18:08;1.20;;;0.82;;
61127;SDS011;47013;42.664;23.242;2023-07-30T08:20:33;0.43;;;0.43;;
61127;SDS011;47013;42.664;23.242;2023-07-30T08:22:59;1.17;;;0.88;;
61127;SDS011;47013;42.664;23.242;2023-07-30T08:25:24;1.45;;;0.77;;
61127;SDS011;47013;42.664;23.242;2023-07-30T08:27:50;0.98;;;0.68;;
61127;SDS011;47013;42.664;23.242;2023-07-30T08:30:15;0.70;;;0.60;;
61127;SDS011;47013;42.664;23.242;2023-07-30T08:32:40;0.45;;;0.45;;
61127;SDS011;47013;42.664;23.242;2023-07-30T08:35:08;0.50;;;0.50;;
61127;SDS011;47013;42.664;23.242;2023-07-30T08:37:34;0.63;;;0.63;;
61127;SDS011;47013;42.664;23.242;2023-07-30T08:39:59;0.30;;;0.30;;
61127;SDS011;47013;42.664;23.242;2023-07-30T08:42:25;1.20;;;0.68;;
61127;SDS011;47013;42.664;23.242;2023-07-30T08:44:50;0.55;;;0.55;;
61127;SDS011;47013;42.664;23.242;2023-07-30T08:47:15;0.85;;;0.63;;
61127;SDS011;47013;42.664;23.242;2023-07-30T08:49:41;0.70;;;0.68;;
61127;SDS011;47013;42.664;23.242;2023-07-30T08:52:09;0.90;;;0.52;;
61127;SDS011;47013;42.664;23.242;2023-07-30T08:54:36;0.73;;;0.70;;
61127;SDS011;47013;42.664;23.242;2023-07-30T08:57:03;0.25;;;0.17;;
61127;SDS011;47013;42.664;23.242;2023-07-30T08:59:39;0.60;;;0.60;;
61127;SDS011;47013;42.664;23.242;2023-07-30T09:02:12;1.67;;;1.02;;
61127;SDS011;47013;42.664;23.242;2023-07-30T09:04:43;0.80;;;0.68;;
61127;SDS011;47013;42.664;23.242;2023-07-30T09:07:13;0.65;;;0.65;;
61127;SDS011;47013;42.664;23.242;2023-07-30T09:09:38;2.03;;;1.00;;
61127;SDS011;47013;42.664;23.242;2023-07-30T09:12:05;1.05;;;0.90;;
61127;SDS011;47013;42.664;23.242;2023-07-30T09:14:38;0.73;;;0.63;;
61127;SDS011;47013;42.664;23.242;2023-07-30T09:17:04;0.68;;;0.45;;
61127;SDS011;47013;42.664;23.242;2023-07-30T09:19:33;0.80;;;0.80;;
61127;SDS011;47013;42.664;23.242;2023-07-30T09:22:03;2.03;;;1.15;;
61127;SDS011;47013;42.664;23.242;2023-07-30T09:24:29;0.88;;;0.73;;
61127;SDS011;47013;42.664;23.242;2023-07-30T09:26:55;1.65;;;0.70;;
61127;SDS011;47013;42.664;23.242;2023-07-30T09:29:22;0.85;;;0.77;;
61127;SDS011;47013;42.664;23.242;2023-07-30T09:31:49;1.73;;;0.77;;
61127;SDS011;47013;42.664;23.242;2023-07-30T09:34:20;1.48;;;0.93;;
61127;SDS011;47013;42.664;23.242;2023-07-30T09:36:46;7.70;;;0.60;;
61127;SDS011;47013;42.664;23.242;2023-07-30T09:39:17;1.73;;;1.00;;
61127;SDS011;47013;42.664;23.242;2023-07-30T09:41:44;1.20;;;0.77;;
61127;SDS011;47013;42.664;23.242;2023-07-30T09:44:10;1.30;;;0.63;;
61127;SDS011;47013;42.664;23.242;2023-07-30T09:46:46;1.95;;;1.15;;
61127;SDS011;47013;42.664;23.242;2023-07-30T09:49:12;1.05;;;0.60;;
61127;SDS011;47013;42.664;23.242;2023-07-30T09:51:38;0.75;;;0.73;;
61127;SDS011;47013;42.664;23.242;2023-07-30T09:54:07;1.00;;;0.90;;
61127;SDS011;47013;42.664;23.242;2023-07-30T09:56:36;1.52;;;0.88;;
61127;SDS011;47013;42.664;23.242;2023-07-30T09:59:04;0.77;;;0.60;;
61127;SDS011;47013;42.664;23.242;2023-07-30T10:01:30;0.93;;;0.77;;
61127;SDS011;47013;42.664;23.242;2023-07-30T10:06:24;0.80;;;0.80;;
61127;SDS011;47013;42.664;23.242;2023-07-30T10:08:52;1.05;;;0.68;;
61127;SDS011;47013;42.664;23.242;2023-07-30T10:11:20;0.85;;;0.70;;
61127;SDS011;47013;42.664;23.242;2023-07-30T10:13:47;0.73;;;0.65;;
61127;SDS011;47013;42.664;23.242;2023-07-30T10:16:13;0.65;;;0.35;;
61127;SDS011;47013;42.664;23.242;2023-07-30T10:18:39;1.13;;;1.00;;
61127;SDS011;47013;42.664;23.242;2023-07-30T10:21:08;0.73;;;0.70;;
61127;SDS011;47013;42.664;23.242;2023-07-30T10:23:35;2.17;;;1.25;;
61127;SDS011;47013;42.664;23.242;2023-07-30T10:26:10;0.60;;;0.50;;
61127;SDS011;47013;42.664;23.242;2023-07-30T10:28:36;1.60;;;0.85;;
61127;SDS011;47013;42.664;23.242;2023-07-30T10:31:07;0.90;;;0.80;;
61127;SDS011;47013;42.664;23.242;2023-07-30T10:33:52;1.33;;;0.98;;
61127;SDS011;47013;42.664;23.242;2023-07-30T10:37:03;1.00;;;0.90;;
61127;SDS011;47013;42.664;23.242;2023-07-30T10:39:18;1.05;;;0.63;;
61127;SDS011;47013;42.664;23.242;2023-07-30T10:41:46;1.02;;;0.90;;
61127;SDS011;47013;42.664;23.242;2023-07-30T10:46:50;1.95;;;1.20;;
61127;SDS011;47013;42.664;23.242;2023-07-30T10:49:16;0.40;;;0.40;;
61127;SDS011;47013;42.664;23.242;2023-07-30T10:51:41;0.80;;;0.80;;
61127;SDS011;47013;42.664;23.242;2023-07-30T10:54:07;1.17;;;1.08;;
61127;SDS011;47013;42.664;23.242;2023-07-30T10:56:34;0.90;;;0.82;;
61127;SDS011;47013;42.664;23.242;2023-07-30T10:59:02;1.05;;;0.98;;
61127;SDS011;47013;42.664;23.242;2023-07-30T11:01:30;3.35;;;1.25;;
61127;SDS011;47013;42.664;23.242;2023-07-30T11:03:55;1.42;;;1.08;;
61127;SDS011;47013;42.664;23.242;2023-07-30T11:06:24;1.50;;;1.08;;
61127;SDS011;47013;42.664;23.242;2023-07-30T11:08:51;1.65;;;1.05;;
61127;SDS011;47013;42.664;23.242;2023-07-30T11:11:16;0.80;;;0.77;;
61127;SDS011;47013;42.664;23.242;2023-07-30T11:13:43;1.42;;;1.05;;
61127;SDS011;47013;42.664;23.242;2023-07-30T11:16:11;1.08;;;0.98;;
61127;SDS011;47013;42.664;23.242;2023-07-30T11:18:37;1.65;;;1.23;;
61127;SDS011;47013;42.664;23.242;2023-07-30T11:23:29;1.48;;;0.90;;
61127;SDS011;47013;42.664;23.242;2023-07-30T11:25:54;1.23;;;1.00;;
61127;SDS011;47013;42.664;23.242;2023-07-30T11:30:59;1.13;;;0.85;;
61127;SDS011;47013;42.664;23.242;2023-07-30T11:33:28;1.85;;;1.20;;
61127;SDS011;47013;42.664;23.242;2023-07-30T11:35:55;1.33;;;0.98;;
61127;SDS011;47013;42.664;23.242;2023-07-30T11:38:22;3.42;;;1.40;;
61127;SDS011;47013;42.664;23.242;2023-07-30T11:40:50;0.70;;;0.70;;
61127;SDS011;47013;42.664;23.242;2023-07-30T11:43:16;1.08;;;0.75;;
61127;SDS011;47013;42.664;23.242;2023-07-30T11:45:42;1.15;;;1.00;;
61127;SDS011;47013;42.664;23.242;2023-07-30T11:48:08;1.08;;;0.88;;
61127;SDS011;47013;42.664;23.242;2023-07-30T11:53:13;1.33;;;0.88;;
61127;SDS011;47013;42.664;23.242;2023-07-30T11:55:39;1.20;;;0.93;;
61127;SDS011;47013;42.664;23.242;2023-07-30T12:00:32;0.85;;;0.85;;
61127;SDS011;47013;42.664;23.242;2023-07-30T12:03:05;1.75;;;0.95;;
61127;SDS011;47013;42.664;23.242;2023-07-30T12:05:35;1.08;;;0.98;;
61127;SDS011;47013;42.664;23.242;2023-07-30T12:08:02;2.58;;;1.10;;
61127;SDS011;47013;42.664;23.242;2023-07-30T12:10:40;2.85;;;1.27;;
61127;SDS011;47013;42.664;23.242;2023-07-30T12:13:19;1.40;;;1.10;;
61127;SDS011;47013;42.664;23.242;2023-07-30T12:15:54;0.93;;;0.82;;
61127;SDS011;47013;42.664;23.242;2023-07-30T12:18:21;2.13;;;1.05;;
61127;SDS011;47013;42.664;23.242;2023-07-30T12:20:51;1.17;;;1.00;;
61127;SDS011;47013;42.664;23.242;2023-07-30T12:23:18;1.08;;;0.98;;
61127;SDS011;47013;42.664;23.242;2023-07-30T12:25:44;0.98;;;0.90;;
61127;SDS011;47013;42.664;23.242;2023-07-30T12:28:10;1.30;;;0.95;;
61127;SDS011;47013;42.664;23.242;2023-07-30T12:30:36;0.85;;;0.65;;
61127;SDS011;47013;42.664;23.242;2023-07-30T12:33:04;1.63;;;1.02;;
61127;SDS011;47013;42.664;23.242;2023-07-30T12:35:31;1.65;;;1.35;;
61127;SDS011;47013;42.664;23.242;2023-07-30T12:37:57;1.15;;;1.05;;
61127;SDS011;47013;42.664;23.242;2023-07-30T12:40:23;0.80;;;0.80;;
61127;SDS011;47013;42.664;23.242;2023-07-30T12:42:48;1.90;;;1.10;;
61127;SDS011;47013;42.664;23.242;2023-07-30T12:45:14;1.40;;;1.10;;
61127;SDS011;47013;42.664;23.242;2023-07-30T12:47:40;0.85;;;0.77;;
61127;SDS011;47013;42.664;23.242;2023-07-30T12:50:05;1.27;;;1.02;;
61127;SDS011;47013;42.664;23.242;2023-07-30T12:52:34;2.63;;;1.35;;
61127;SDS011;47013;42.664;23.242;2023-07-30T12:55:00;2.03;;;1.00;;
61127;SDS011;47013;42.664;23.242;2023-07-30T12:57:26;1.02;;;0.93;;
61127;SDS011;47013;42.664;23.242;2023-07-30T12:59:52;0.85;;;0.85;;
61127;SDS011;47013;42.664;23.242;2023-07-30T13:02:18;1.58;;;0.82;;
61127;SDS011;47013;42.664;23.242;2023-07-30T13:04:43;2.00;;;1.23;;
61127;SDS011;47013;42.664;23.242;2023-07-30T13:07:08;1.63;;;1.02;;
61127;SDS011;47013;42.664;23.242;2023-07-30T13:09:34;0.95;;;0.90;;
61127;SDS011;47013;42.664;23.242;2023-07-30T13:12:00;2.20;;;1.30;;
61127;SDS011;47013;42.664;23.242;2023-07-30T13:14:25;1.63;;;1.10;;
61127;SDS011;47013;42.664;23.242;2023-07-30T13:16:50;1.10;;;1.00;;
61127;SDS011;47013;42.664;23.242;2023-07-30T13:19:16;1.50;;;1.05;;
61127;SDS011;47013;42.664;23.242;2023-07-30T13:21:41;1.60;;;1.08;;
61127;SDS011;47013;42.664;23.242;2023-07-30T13:24:07;1.23;;;0.90;;
61127;SDS011;47013;42.664;23.242;2023-07-30T13:26:32;1.60;;;1.30;;
61127;SDS011;47013;42.664;23.242;2023-07-30T13:28:57;1.52;;;1.05;;
61127;SDS011;47013;42.664;23.242;2023-07-30T13:31:23;3.00;;;1.80;;
61127;SDS011;47013;42.664;23.242;2023-07-30T13:33:48;2.45;;;1.35;;
61127;SDS011;47013;42.664;23.242;2023-07-30T13:36:14;0.95;;;0.93;;
61127;SDS011;47013;42.664;23.242;2023-07-30T13:38:39;1.75;;;0.82;;
61127;SDS011;47013;42.664;23.242;2023-07-30T13:41:05;2.92;;;1.30;;
61127;SDS011;47013;42.664;23.242;2023-07-30T13:43:31;1.30;;;1.08;;
61127;SDS011;47013;42.664;23.242;2023-07-30T13:45:57;1.75;;;0.95;;
61127;SDS011;47013;42.664;23.242;2023-07-30T13:48:24;0.80;;;0.80;;
61127;SDS011;47013;42.664;23.242;2023-07-30T13:50:49;0.93;;;0.88;;
61127;SDS011;47013;42.664;23.242;2023-07-30T13:53:15;2.05;;;1.40;;
61127;SDS011;47013;42.664;23.242;2023-07-30T13:55:40;2.00;;;1.17;;
61127;SDS011;47013;42.664;23.242;2023-07-30T13:58:06;1.10;;;0.80;;
61127;SDS011;47013;42.664;23.242;2023-07-30T14:00:31;1.38;;;0.88;;
61127;SDS011;47013;42.664;23.242;2023-07-30T14:02:56;2.28;;;1.20;;
61127;SDS011;47013;42.664;23.242;2023-07-30T14:05:22;0.95;;;0.90;;
61127;SDS011;47013;42.664;23.242;2023-07-30T14:07:48;1.40;;;1.17;;
61127;SDS011;47013;42.664;23.242;2023-07-30T14:10:15;1.38;;;0.90;;
61127;SDS011;47013;42.664;23.242;2023-07-30T14:12:40;1.02;;;0.88;;
61127;SDS011;47013;42.664;23.242;2023-07-30T14:15:06;1.65;;;1.00;;
61127;SDS011;47013;42.664;23.242;2023-07-30T14:17:31;1.65;;;1.15;;
61127;SDS011;47013;42.664;23.242;2023-07-30T14:19:57;1.08;;;0.85;;
61127;SDS011;47013;42.664;23.242;2023-07-30T14:22:22;1.13;;;0.98;;
61127;SDS011;47013;42.664;23.242;2023-07-30T14:24:48;1.10;;;1.00;;
61127;SDS011;47013;42.664;23.242;2023-07-30T14:27:13;1.25;;;0.75;;
61127;SDS011;47013;42.664;23.242;2023-07-30T14:29:39;1.92;;;1.20;;
61127;SDS011;47013;42.664;23.242;2023-07-30T14:32:05;0.90;;;0.60;;
61127;SDS011;47013;42.664;23.242;2023-07-30T14:34:31;0.68;;;0.68;;
61127;SDS011;47013;42.664;23.242;2023-07-30T14:36:56;1.45;;;0.95;;
61127;SDS011;47013;42.664;23.242;2023-07-30T14:39:22;2.20;;;1.13;;
61127;SDS011;47013;42.664;23.242;2023-07-30T14:41:47;0.95;;;0.82;;
61127;SDS011;47013;42.664;23.242;2023-07-30T14:44:12;1.85;;;1.13;;